sensor_id;sensor_type;location;lat;lon;timestamp;temperature;humidity
10911;DHT22;5508;49.150;11.030;2023-07-22T00:02:07;12.10;99.90
10911;DHT22;5508;49.150;11.030;2023-07-22T00:05:07;12.10;99.90
10911;DHT22;5508;49.150;11.030;2023-07-22T00:08:08;12.10;99.90
10911;DHT22;5508;49.150;11.030;2023-07-22T00:11:09;12.10;99.90
10911;DHT22;5508;49.150;11.030;2023-07-22T00:14:09;12.10;99.90
10911;DHT22;5508;49.150;11.030;2023-07-22T00:17:10;12.10;99.90
10911;DHT22;5508;49.150;11.030;2023-07-22T00:20:11;12.10;99.90
10911;DHT22;5508;49.150;11.030;2023-07-22T00:23:12;12.10;99.90
10911;DHT22;5508;49.150;11.030;2023-07-22T00:26:12;12.00;99.90
10911;DHT22;5508;49.150;11.030;2023-07-22T00:29:13;11.90;99.90
10911;DHT22;5508;49.150;11.030;2023-07-22T00:32:13;11.80;99.90
10911;DHT22;5508;49.150;11.030;2023-07-22T00:35:14;11.80;99.90
10911;DHT22;5508;49.150;11.030;2023-07-22T00:38:15;11.80;99.90
10911;DHT22;5508;49.150;11.030;2023-07-22T00:41:16;11.70;99.90
10911;DHT22;5508;49.150;11.030;2023-07-22T00:44:16;11.60;99.90
10911;DHT22;5508;49.150;11.030;2023-07-22T00:47:17;11.70;99.90
10911;DHT22;5508;49.150;11.030;2023-07-22T00:50:18;11.60;99.90
10911;DHT22;5508;49.150;11.030;2023-07-22T00:53:19;11.60;99.90
10911;DHT22;5508;49.150;11.030;2023-07-22T00:56:20;11.60;99.90
10911;DHT22;5508;49.150;11.030;2023-07-22T00:59:20;11.60;99.90
10911;DHT22;5508;49.150;11.030;2023-07-22T01:02:22;11.60;99.90
10911;DHT22;5508;49.150;11.030;2023-07-22T01:05:24;11.50;99.90
10911;DHT22;5508;49.150;11.030;2023-07-22T01:08:26;11.60;99.90
10911;DHT22;5508;49.150;11.030;2023-07-22T01:11:26;11.50;99.90
10911;DHT22;5508;49.150;11.030;2023-07-22T01:14:27;11.40;99.90
10911;DHT22;5508;49.150;11.030;2023-07-22T01:17:27;11.40;99.90
10911;DHT22;5508;49.150;11.030;2023-07-22T01:20:29;11.30;99.90
10911;DHT22;5508;49.150;11.030;2023-07-22T01:23:30;11.20;99.90
10911;DHT22;5508;49.150;11.030;2023-07-22T01:26:31;11.30;99.90
10911;DHT22;5508;49.150;11.030;2023-07-22T01:29:31;11.30;99.90
10911;DHT22;5508;49.150;11.030;2023-07-22T01:32:32;11.20;99.90
10911;DHT22;5508;49.150;11.030;2023-07-22T01:35:32;11.40;99.90
10911;DHT22;5508;49.150;11.030;2023-07-22T01:38:34;11.50;99.90
10911;DHT22;5508;49.150;11.030;2023-07-22T01:41:36;11.60;99.90
10911;DHT22;5508;49.150;11.030;2023-07-22T01:44:36;11.80;99.90
10911;DHT22;5508;49.150;11.030;2023-07-22T01:47:38;11.80;99.90
10911;DHT22;5508;49.150;11.030;2023-07-22T01:50:39;11.60;99.90
10911;DHT22;5508;49.150;11.030;2023-07-22T01:53:39;11.40;99.90
10911;DHT22;5508;49.150;11.030;2023-07-22T01:56:40;11.30;99.90
10911;DHT22;5508;49.150;11.030;2023-07-22T01:59:40;11.20;99.90
10911;DHT22;5508;49.150;11.030;2023-07-22T02:02:42;11.20;99.90
10911;DHT22;5508;49.150;11.030;2023-07-22T02:05:42;11.10;99.90
10911;DHT22;5508;49.150;11.030;2023-07-22T02:08:43;11.10;99.90
10911;DHT22;5508;49.150;11.030;2023-07-22T02:11:44;11.10;99.90
10911;DHT22;5508;49.150;11.030;2023-07-22T02:14:44;11.10;99.90
10911;DHT22;5508;49.150;11.030;2023-07-22T02:17:45;11.00;99.90
10911;DHT22;5508;49.150;11.030;2023-07-22T02:20:46;11.00;99.90
10911;DHT22;5508;49.150;11.030;2023-07-22T02:23:46;11.00;99.90
10911;DHT22;5508;49.150;11.030;2023-07-22T02:26:47;11.00;99.90
10911;DHT22;5508;49.150;11.030;2023-07-22T02:29:47;10.90;99.90
10911;DHT22;5508;49.150;11.030;2023-07-22T02:32:48;10.80;99.90
10911;DHT22;5508;49.150;11.030;2023-07-22T02:35:48;10.80;99.90
10911;DHT22;5508;49.150;11.030;2023-07-22T02:38:49;10.80;99.90
10911;DHT22;5508;49.150;11.030;2023-07-22T02:41:50;10.60;99.90
10911;DHT22;5508;49.150;11.030;2023-07-22T02:44:50;10.60;99.90
10911;DHT22;5508;49.150;11.030;2023-07-22T02:47:51;10.60;99.90
10911;DHT22;5508;49.150;11.030;2023-07-22T02:50:52;10.60;99.90
10911;DHT22;5508;49.150;11.030;2023-07-22T02:53:52;10.60;99.90
10911;DHT22;5508;49.150;11.030;2023-07-22T02:56:53;10.50;99.90
10911;DHT22;5508;49.150;11.030;2023-07-22T02:59:53;10.40;99.90
10911;DHT22;5508;49.150;11.030;2023-07-22T03:02:55;10.40;99.90
10911;DHT22;5508;49.150;11.030;2023-07-22T03:06:01;10.40;99.90
10911;DHT22;5508;49.150;11.030;2023-07-22T03:09:02;10.30;99.90
10911;DHT22;5508;49.150;11.030;2023-07-22T03:12:05;10.20;99.90
10911;DHT22;5508;49.150;11.030;2023-07-22T03:15:06;10.10;99.90
10911;DHT22;5508;49.150;11.030;2023-07-22T03:18:08;10.10;99.90
10911;DHT22;5508;49.150;11.030;2023-07-22T03:21:10;10.10;99.90
10911;DHT22;5508;49.150;11.030;2023-07-22T03:24:10;10.10;99.90
10911;DHT22;5508;49.150;11.030;2023-07-22T03:27:12;10.20;99.90
10911;DHT22;5508;49.150;11.030;2023-07-22T03:30:15;10.10;99.90
10911;DHT22;5508;49.150;11.030;2023-07-22T03:33:16;10.10;99.90
10911;DHT22;5508;49.150;11.030;2023-07-22T03:36:16;10.20;99.90
10911;DHT22;5508;49.150;11.030;2023-07-22T03:39:17;10.20;99.90
10911;DHT22;5508;49.150;11.030;2023-07-22T03:42:17;10.30;99.90
10911;DHT22;5508;49.150;11.030;2023-07-22T03:45:19;10.40;99.90
10911;DHT22;5508;49.150;11.030;2023-07-22T03:48:20;10.30;99.90
10911;DHT22;5508;49.150;11.030;2023-07-22T03:51:20;10.30;99.90
10911;DHT22;5508;49.150;11.030;2023-07-22T03:54:21;10.20;99.90
10911;DHT22;5508;49.150;11.030;2023-07-22T03:57:28;10.20;99.90
10911;DHT22;5508;49.150;11.030;2023-07-22T04:00:30;10.20;99.90
10911;DHT22;5508;49.150;11.030;2023-07-22T04:03:31;10.30;99.90
10911;DHT22;5508;49.150;11.030;2023-07-22T04:06:32;10.40;99.90
10911;DHT22;5508;49.150;11.030;2023-07-22T04:09:32;10.50;99.90
10911;DHT22;5508;49.150;11.030;2023-07-22T04:12:33;10.60;99.90
10911;DHT22;5508;49.150;11.030;2023-07-22T04:15:34;10.70;99.90
10911;DHT22;5508;49.150;11.030;2023-07-22T04:18:34;10.70;99.90
10911;DHT22;5508;49.150;11.030;2023-07-22T04:21:35;10.80;99.90
10911;DHT22;5508;49.150;11.030;2023-07-22T04:24:35;10.80;99.90
10911;DHT22;5508;49.150;11.030;2023-07-22T04:27:36;10.90;99.90
10911;DHT22;5508;49.150;11.030;2023-07-22T04:30:37;10.90;99.90
10911;DHT22;5508;49.150;11.030;2023-07-22T04:33:38;10.90;99.90
10911;DHT22;5508;49.150;11.030;2023-07-22T04:36:38;11.10;99.90
10911;DHT22;5508;49.150;11.030;2023-07-22T04:39:39;11.20;99.90
10911;DHT22;5508;49.150;11.030;2023-07-22T04:42:40;11.40;99.90
10911;DHT22;5508;49.150;11.030;2023-07-22T04:45:43;11.60;99.90
10911;DHT22;5508;49.150;11.030;2023-07-22T04:48:44;11.80;99.90
10911;DHT22;5508;49.150;11.030;2023-07-22T04:51:46;11.80;99.90
10911;DHT22;5508;49.150;11.030;2023-07-22T04:54:46;12.00;99.90
10911;DHT22;5508;49.150;11.030;2023-07-22T04:57:48;12.00;99.90
10911;DHT22;5508;49.150;11.030;2023-07-22T05:00:51;12.00;99.90
10911;DHT22;5508;49.150;11.030;2023-07-22T05:03:52;11.90;99.90
10911;DHT22;5508;49.150;11.030;2023-07-22T05:06:55;12.00;99.90
10911;DHT22;5508;49.150;11.030;2023-07-22T05:09:55;12.10;99.90
10911;DHT22;5508;49.150;11.030;2023-07-22T05:12:56;12.20;99.90
10911;DHT22;5508;49.150;11.030;2023-07-22T05:15:59;12.30;99.90
10911;DHT22;5508;49.150;11.030;2023-07-22T05:19:00;12.20;99.90
10911;DHT22;5508;49.150;11.030;2023-07-22T05:22:01;12.30;99.90
10911;DHT22;5508;49.150;11.030;2023-07-22T05:25:02;12.30;99.90
10911;DHT22;5508;49.150;11.030;2023-07-22T05:28:04;12.60;99.90
10911;DHT22;5508;49.150;11.030;2023-07-22T05:31:05;12.70;99.90
10911;DHT22;5508;49.150;11.030;2023-07-22T05:34:06;12.90;99.90
10911;DHT22;5508;49.150;11.030;2023-07-22T05:37:07;13.20;98.90
10911;DHT22;5508;49.150;11.030;2023-07-22T05:40:09;13.40;97.80
10911;DHT22;5508;49.150;11.030;2023-07-22T05:43:10;13.40;98.90
10911;DHT22;5508;49.150;11.030;2023-07-22T05:46:10;13.50;99.80
10911;DHT22;5508;49.150;11.030;2023-07-22T05:49:11;13.50;99.90
10911;DHT22;5508;49.150;11.030;2023-07-22T05:52:11;13.50;98.60
10911;DHT22;5508;49.150;11.030;2023-07-22T05:55:12;13.50;99.50
10911;DHT22;5508;49.150;11.030;2023-07-22T05:58:16;13.70;98.50
10911;DHT22;5508;49.150;11.030;2023-07-22T06:01:18;13.90;96.30
10911;DHT22;5508;49.150;11.030;2023-07-22T06:04:18;14.30;94.30
10911;DHT22;5508;49.150;11.030;2023-07-22T06:07:19;14.60;93.20
10911;DHT22;5508;49.150;11.030;2023-07-22T06:10:19;14.90;91.20
10911;DHT22;5508;49.150;11.030;2023-07-22T06:13:20;15.30;89.80
10911;DHT22;5508;49.150;11.030;2023-07-22T06:16:21;15.60;87.60
10911;DHT22;5508;49.150;11.030;2023-07-22T06:19:21;15.60;87.60
10911;DHT22;5508;49.150;11.030;2023-07-22T06:22:24;16.10;87.60
10911;DHT22;5508;49.150;11.030;2023-07-22T06:25:24;16.60;82.60
10911;DHT22;5508;49.150;11.030;2023-07-22T06:28:25;16.70;80.20
10911;DHT22;5508;49.150;11.030;2023-07-22T06:31:25;16.60;80.60
10911;DHT22;5508;49.150;11.030;2023-07-22T06:34:30;16.70;81.40
10911;DHT22;5508;49.150;11.030;2023-07-22T06:37:31;17.00;79.10
10911;DHT22;5508;49.150;11.030;2023-07-22T06:40:31;17.00;79.00
10911;DHT22;5508;49.150;11.030;2023-07-22T06:43:32;17.10;79.40
10911;DHT22;5508;49.150;11.030;2023-07-22T06:46:33;17.20;80.10
10911;DHT22;5508;49.150;11.030;2023-07-22T06:49:33;17.30;77.90
10911;DHT22;5508;49.150;11.030;2023-07-22T06:52:34;17.60;78.80
10911;DHT22;5508;49.150;11.030;2023-07-22T06:55:34;18.00;75.80
10911;DHT22;5508;49.150;11.030;2023-07-22T06:58:35;18.30;74.10
10911;DHT22;5508;49.150;11.030;2023-07-22T07:01:35;18.30;72.00
10911;DHT22;5508;49.150;11.030;2023-07-22T07:04:36;18.20;74.60
10911;DHT22;5508;49.150;11.030;2023-07-22T07:07:36;18.20;73.10
10911;DHT22;5508;49.150;11.030;2023-07-22T07:10:38;18.50;70.60
10911;DHT22;5508;49.150;11.030;2023-07-22T07:13:39;18.70;69.60
10911;DHT22;5508;49.150;11.030;2023-07-22T07:16:40;18.80;66.90
10911;DHT22;5508;49.150;11.030;2023-07-22T07:19:40;18.80;66.70
10911;DHT22;5508;49.150;11.030;2023-07-22T07:22:41;18.60;69.30
10911;DHT22;5508;49.150;11.030;2023-07-22T07:25:41;18.40;69.70
10911;DHT22;5508;49.150;11.030;2023-07-22T07:28:42;18.10;67.70
10911;DHT22;5508;49.150;11.030;2023-07-22T07:31:43;18.00;66.70
10911;DHT22;5508;49.150;11.030;2023-07-22T07:34:43;18.20;67.10
10911;DHT22;5508;49.150;11.030;2023-07-22T07:37:44;18.60;65.40
10911;DHT22;5508;49.150;11.030;2023-07-22T07:40:44;18.50;67.00
10911;DHT22;5508;49.150;11.030;2023-07-22T07:43:45;18.70;67.40
10911;DHT22;5508;49.150;11.030;2023-07-22T07:46:46;18.60;64.40
10911;DHT22;5508;49.150;11.030;2023-07-22T07:49:46;18.80;64.00
10911;DHT22;5508;49.150;11.030;2023-07-22T07:52:47;19.40;63.30
10911;DHT22;5508;49.150;11.030;2023-07-22T07:55:48;19.20;63.10
10911;DHT22;5508;49.150;11.030;2023-07-22T07:58:50;19.50;62.30
10911;DHT22;5508;49.150;11.030;2023-07-22T08:01:51;19.80;61.00
10911;DHT22;5508;49.150;11.030;2023-07-22T08:04:51;20.10;59.80
10911;DHT22;5508;49.150;11.030;2023-07-22T08:07:52;20.10;58.20
10911;DHT22;5508;49.150;11.030;2023-07-22T08:11:09;20.40;58.00
10911;DHT22;5508;49.150;11.030;2023-07-22T08:14:10;20.70;55.20
10911;DHT22;5508;49.150;11.030;2023-07-22T08:17:11;20.90;54.70
10911;DHT22;5508;49.150;11.030;2023-07-22T08:20:11;20.30;55.10
10911;DHT22;5508;49.150;11.030;2023-07-22T08:23:12;20.70;55.10
10911;DHT22;5508;49.150;11.030;2023-07-22T08:26:13;20.80;52.60
10911;DHT22;5508;49.150;11.030;2023-07-22T08:29:14;20.90;52.40
10911;DHT22;5508;49.150;11.030;2023-07-22T08:32:15;21.20;52.10
10911;DHT22;5508;49.150;11.030;2023-07-22T08:35:15;21.20;50.10
10911;DHT22;5508;49.150;11.030;2023-07-22T08:38:18;21.40;52.70
10911;DHT22;5508;49.150;11.030;2023-07-22T08:41:19;21.90;51.00
10911;DHT22;5508;49.150;11.030;2023-07-22T08:44:25;22.20;47.00
10911;DHT22;5508;49.150;11.030;2023-07-22T08:47:31;21.80;49.40
10911;DHT22;5508;49.150;11.030;2023-07-22T08:50:35;21.30;49.90
10911;DHT22;5508;49.150;11.030;2023-07-22T08:53:37;21.10;50.10
10911;DHT22;5508;49.150;11.030;2023-07-22T08:56:38;20.90;52.80
10911;DHT22;5508;49.150;11.030;2023-07-22T08:59:41;20.80;52.30
10911;DHT22;5508;49.150;11.030;2023-07-22T09:02:42;20.90;52.60
10911;DHT22;5508;49.150;11.030;2023-07-22T09:05:44;20.60;53.90
10911;DHT22;5508;49.150;11.030;2023-07-22T09:08:45;20.20;52.40
10911;DHT22;5508;49.150;11.030;2023-07-22T09:11:47;20.20;54.60
10911;DHT22;5508;49.150;11.030;2023-07-22T09:14:49;20.80;53.90
10911;DHT22;5508;49.150;11.030;2023-07-22T09:17:51;21.00;54.40
10911;DHT22;5508;49.150;11.030;2023-07-22T09:20:51;21.00;53.00
10911;DHT22;5508;49.150;11.030;2023-07-22T09:23:52;21.40;53.30
10911;DHT22;5508;49.150;11.030;2023-07-22T09:26:54;22.00;50.80
10911;DHT22;5508;49.150;11.030;2023-07-22T09:29:54;22.30;48.50
10911;DHT22;5508;49.150;11.030;2023-07-22T09:32:57;22.50;48.10
10911;DHT22;5508;49.150;11.030;2023-07-22T09:35:58;22.60;50.10
10911;DHT22;5508;49.150;11.030;2023-07-22T09:39:02;22.70;48.40
10911;DHT22;5508;49.150;11.030;2023-07-22T09:42:03;22.30;48.50
10911;DHT22;5508;49.150;11.030;2023-07-22T09:45:05;22.30;48.60
10911;DHT22;5508;49.150;11.030;2023-07-22T09:48:09;23.10;47.40
10911;DHT22;5508;49.150;11.030;2023-07-22T09:51:16;23.20;45.40
10911;DHT22;5508;49.150;11.030;2023-07-22T09:54:17;22.90;44.90
10911;DHT22;5508;49.150;11.030;2023-07-22T09:57:20;22.30;49.10
10911;DHT22;5508;49.150;11.030;2023-07-22T10:00:23;22.30;49.60
10911;DHT22;5508;49.150;11.030;2023-07-22T10:03:29;22.60;48.00
10911;DHT22;5508;49.150;11.030;2023-07-22T10:06:34;23.10;46.00
10911;DHT22;5508;49.150;11.030;2023-07-22T10:09:37;23.60;45.00
10911;DHT22;5508;49.150;11.030;2023-07-22T10:12:42;23.70;41.70
10911;DHT22;5508;49.150;11.030;2023-07-22T10:15:44;23.50;42.90
10911;DHT22;5508;49.150;11.030;2023-07-22T10:18:46;23.20;44.60
10911;DHT22;5508;49.150;11.030;2023-07-22T10:21:48;22.80;44.10
10911;DHT22;5508;49.150;11.030;2023-07-22T10:24:50;22.30;45.20
10911;DHT22;5508;49.150;11.030;2023-07-22T10:27:53;21.80;46.30
10911;DHT22;5508;49.150;11.030;2023-07-22T10:30:54;21.30;47.30
10911;DHT22;5508;49.150;11.030;2023-07-22T10:33:56;21.10;48.80
10911;DHT22;5508;49.150;11.030;2023-07-22T10:36:56;21.20;49.10
10911;DHT22;5508;49.150;11.030;2023-07-22T10:40:00;21.40;48.80
10911;DHT22;5508;49.150;11.030;2023-07-22T10:43:05;21.40;47.90
10911;DHT22;5508;49.150;11.030;2023-07-22T10:46:10;21.70;48.60
10911;DHT22;5508;49.150;11.030;2023-07-22T10:49:14;22.10;48.10
10911;DHT22;5508;49.150;11.030;2023-07-22T10:52:37;22.20;48.20
10911;DHT22;5508;49.150;11.030;2023-07-22T10:59:12;22.10;47.20
10911;DHT22;5508;49.150;11.030;2023-07-22T11:02:23;21.80;49.60
10911;DHT22;5508;49.150;11.030;2023-07-22T11:05:50;21.70;49.40
10911;DHT22;5508;49.150;11.030;2023-07-22T11:08:51;21.60;48.20
10911;DHT22;5508;49.150;11.030;2023-07-22T11:11:53;21.90;46.80
10911;DHT22;5508;49.150;11.030;2023-07-22T11:15:15;22.00;47.60
10911;DHT22;5508;49.150;11.030;2023-07-22T11:18:16;22.10;48.00
10911;DHT22;5508;49.150;11.030;2023-07-22T11:21:17;22.40;46.40
10911;DHT22;5508;49.150;11.030;2023-07-22T11:24:19;22.30;45.50
10911;DHT22;5508;49.150;11.030;2023-07-22T11:27:19;22.50;46.40
10911;DHT22;5508;49.150;11.030;2023-07-22T11:30:24;22.80;45.00
10911;DHT22;5508;49.150;11.030;2023-07-22T11:33:25;22.80;43.30
10911;DHT22;5508;49.150;11.030;2023-07-22T11:36:29;23.30;44.70
10911;DHT22;5508;49.150;11.030;2023-07-22T11:39:30;23.60;43.00
10911;DHT22;5508;49.150;11.030;2023-07-22T11:42:34;24.20;42.50
10911;DHT22;5508;49.150;11.030;2023-07-22T11:48:38;25.20;38.50
10911;DHT22;5508;49.150;11.030;2023-07-22T11:51:42;25.10;37.70
10911;DHT22;5508;49.150;11.030;2023-07-22T11:54:45;24.60;37.60
10911;DHT22;5508;49.150;11.030;2023-07-22T11:57:55;25.00;37.70
10911;DHT22;5508;49.150;11.030;2023-07-22T12:01:06;24.70;33.90
10911;DHT22;5508;49.150;11.030;2023-07-22T12:04:12;24.30;36.70
10911;DHT22;5508;49.150;11.030;2023-07-22T12:07:27;24.10;34.90
10911;DHT22;5508;49.150;11.030;2023-07-22T12:10:27;23.90;37.90
10911;DHT22;5508;49.150;11.030;2023-07-22T12:13:28;23.70;37.40
10911;DHT22;5508;49.150;11.030;2023-07-22T12:16:29;23.80;36.50
10911;DHT22;5508;49.150;11.030;2023-07-22T12:19:30;23.70;35.70
10911;DHT22;5508;49.150;11.030;2023-07-22T12:22:31;23.80;36.20
10911;DHT22;5508;49.150;11.030;2023-07-22T12:25:32;23.80;36.10
10911;DHT22;5508;49.150;11.030;2023-07-22T12:28:33;24.00;37.30
10911;DHT22;5508;49.150;11.030;2023-07-22T12:31:34;24.00;38.20
10911;DHT22;5508;49.150;11.030;2023-07-22T12:34:34;24.10;35.40
10911;DHT22;5508;49.150;11.030;2023-07-22T12:37:35;23.80;34.20
10911;DHT22;5508;49.150;11.030;2023-07-22T12:40:36;24.10;35.40
10911;DHT22;5508;49.150;11.030;2023-07-22T12:43:36;24.30;34.60
10911;DHT22;5508;49.150;11.030;2023-07-22T12:46:37;24.00;34.90
10911;DHT22;5508;49.150;11.030;2023-07-22T12:49:37;24.30;36.00
10911;DHT22;5508;49.150;11.030;2023-07-22T12:52:38;24.50;35.00
10911;DHT22;5508;49.150;11.030;2023-07-22T12:55:39;24.10;35.80
10911;DHT22;5508;49.150;11.030;2023-07-22T12:58:40;24.20;36.40
10911;DHT22;5508;49.150;11.030;2023-07-22T13:01:40;24.40;34.40
10911;DHT22;5508;49.150;11.030;2023-07-22T13:04:42;24.70;34.00
10911;DHT22;5508;49.150;11.030;2023-07-22T13:07:44;24.90;33.60
10911;DHT22;5508;49.150;11.030;2023-07-22T13:10:45;25.40;33.90
10911;DHT22;5508;49.150;11.030;2023-07-22T13:13:47;25.50;32.90
10911;DHT22;5508;49.150;11.030;2023-07-22T13:16:48;25.70;32.20
10911;DHT22;5508;49.150;11.030;2023-07-22T13:19:48;25.70;31.70
10911;DHT22;5508;49.150;11.030;2023-07-22T13:22:49;25.30;32.10
10911;DHT22;5508;49.150;11.030;2023-07-22T13:25:49;24.80;32.50
10911;DHT22;5508;49.150;11.030;2023-07-22T13:28:50;24.90;31.50
10911;DHT22;5508;49.150;11.030;2023-07-22T13:31:50;24.90;32.30
10911;DHT22;5508;49.150;11.030;2023-07-22T13:34:51;24.90;32.10
10911;DHT22;5508;49.150;11.030;2023-07-22T13:37:52;24.90;32.10
10911;DHT22;5508;49.150;11.030;2023-07-22T13:40:52;24.90;32.50
10911;DHT22;5508;49.150;11.030;2023-07-22T13:43:53;24.90;33.20
10911;DHT22;5508;49.150;11.030;2023-07-22T13:46:53;25.10;32.20
10911;DHT22;5508;49.150;11.030;2023-07-22T13:49:54;25.10;31.80
10911;DHT22;5508;49.150;11.030;2023-07-22T13:52:54;25.00;31.90
10911;DHT22;5508;49.150;11.030;2023-07-22T13:55:55;24.90;31.80
10911;DHT22;5508;49.150;11.030;2023-07-22T13:58:55;25.10;31.40
10911;DHT22;5508;49.150;11.030;2023-07-22T14:01:56;24.70;32.40
10911;DHT22;5508;49.150;11.030;2023-07-22T14:04:57;24.40;32.30
10911;DHT22;5508;49.150;11.030;2023-07-22T14:07:57;24.50;33.50
10911;DHT22;5508;49.150;11.030;2023-07-22T14:10:58;25.10;33.60
10911;DHT22;5508;49.150;11.030;2023-07-22T14:13:59;25.80;31.90
10911;DHT22;5508;49.150;11.030;2023-07-22T14:16:59;25.50;31.20
10911;DHT22;5508;49.150;11.030;2023-07-22T14:20:00;25.20;30.90
10911;DHT22;5508;49.150;11.030;2023-07-22T14:23:01;24.40;32.50
10911;DHT22;5508;49.150;11.030;2023-07-22T14:26:03;24.00;33.70
10911;DHT22;5508;49.150;11.030;2023-07-22T14:29:03;23.90;34.00
10911;DHT22;5508;49.150;11.030;2023-07-22T14:32:04;24.00;34.20
10911;DHT22;5508;49.150;11.030;2023-07-22T14:35:05;24.20;33.30
10911;DHT22;5508;49.150;11.030;2023-07-22T14:38:06;24.60;33.40
10911;DHT22;5508;49.150;11.030;2023-07-22T14:41:06;24.70;32.70
10911;DHT22;5508;49.150;11.030;2023-07-22T14:44:07;24.50;32.60
10911;DHT22;5508;49.150;11.030;2023-07-22T14:47:08;24.80;32.80
10911;DHT22;5508;49.150;11.030;2023-07-22T14:50:09;25.10;31.20
10911;DHT22;5508;49.150;11.030;2023-07-22T14:53:10;25.20;32.50
10911;DHT22;5508;49.150;11.030;2023-07-22T14:56:10;25.10;32.10
10911;DHT22;5508;49.150;11.030;2023-07-22T14:59:13;25.30;32.40
10911;DHT22;5508;49.150;11.030;2023-07-22T15:02:14;25.10;32.00
10911;DHT22;5508;49.150;11.030;2023-07-22T15:05:15;25.10;32.30
10911;DHT22;5508;49.150;11.030;2023-07-22T15:08:15;25.00;31.80
10911;DHT22;5508;49.150;11.030;2023-07-22T15:11:16;25.40;31.50
10911;DHT22;5508;49.150;11.030;2023-07-22T15:14:16;25.30;31.40
10911;DHT22;5508;49.150;11.030;2023-07-22T15:17:17;25.40;30.70
10911;DHT22;5508;49.150;11.030;2023-07-22T15:20:18;25.30;31.80
10911;DHT22;5508;49.150;11.030;2023-07-22T15:23:19;25.50;31.60
10911;DHT22;5508;49.150;11.030;2023-07-22T15:26:20;25.70;30.80
10911;DHT22;5508;49.150;11.030;2023-07-22T15:29:21;25.50;30.60
10911;DHT22;5508;49.150;11.030;2023-07-22T15:32:21;25.50;31.30
10911;DHT22;5508;49.150;11.030;2023-07-22T15:35:22;25.50;31.20
10911;DHT22;5508;49.150;11.030;2023-07-22T15:38:22;25.50;31.20
10911;DHT22;5508;49.150;11.030;2023-07-22T15:41:23;25.00;32.50
10911;DHT22;5508;49.150;11.030;2023-07-22T15:44:23;25.00;32.30
10911;DHT22;5508;49.150;11.030;2023-07-22T15:47:27;24.80;32.80
10911;DHT22;5508;49.150;11.030;2023-07-22T15:50:28;24.70;33.30
10911;DHT22;5508;49.150;11.030;2023-07-22T15:53:29;24.80;33.20
10911;DHT22;5508;49.150;11.030;2023-07-22T15:56:29;24.60;33.00
10911;DHT22;5508;49.150;11.030;2023-07-22T15:59:30;24.40;34.00
10911;DHT22;5508;49.150;11.030;2023-07-22T16:02:30;24.30;34.00
10911;DHT22;5508;49.150;11.030;2023-07-22T16:05:31;24.20;35.00
10911;DHT22;5508;49.150;11.030;2023-07-22T16:08:32;24.10;34.90
10911;DHT22;5508;49.150;11.030;2023-07-22T16:11:32;24.00;35.70
10911;DHT22;5508;49.150;11.030;2023-07-22T16:14:33;23.80;35.10
10911;DHT22;5508;49.150;11.030;2023-07-22T16:17:33;23.80;35.80
10911;DHT22;5508;49.150;11.030;2023-07-22T16:20:34;24.00;35.40
10911;DHT22;5508;49.150;11.030;2023-07-22T16:23:35;24.10;34.90
10911;DHT22;5508;49.150;11.030;2023-07-22T16:26:36;24.10;35.00
10911;DHT22;5508;49.150;11.030;2023-07-22T16:29:36;24.20;34.60
10911;DHT22;5508;49.150;11.030;2023-07-22T16:32:37;24.40;35.00
10911;DHT22;5508;49.150;11.030;2023-07-22T16:35:37;24.50;35.00
10911;DHT22;5508;49.150;11.030;2023-07-22T16:38:38;24.50;34.30
10911;DHT22;5508;49.150;11.030;2023-07-22T16:41:38;24.40;34.80
10911;DHT22;5508;49.150;11.030;2023-07-22T16:44:39;24.20;35.00
10911;DHT22;5508;49.150;11.030;2023-07-22T16:47:40;24.30;34.60
10911;DHT22;5508;49.150;11.030;2023-07-22T16:50:40;24.20;35.30
10911;DHT22;5508;49.150;11.030;2023-07-22T16:53:41;24.00;35.70
10911;DHT22;5508;49.150;11.030;2023-07-22T16:56:41;24.00;36.10
10911;DHT22;5508;49.150;11.030;2023-07-22T16:59:42;23.90;35.60
10911;DHT22;5508;49.150;11.030;2023-07-22T17:02:43;23.70;35.60
10911;DHT22;5508;49.150;11.030;2023-07-22T17:05:44;23.70;36.40
10911;DHT22;5508;49.150;11.030;2023-07-22T17:08:44;23.60;37.20
10911;DHT22;5508;49.150;11.030;2023-07-22T17:11:45;23.60;37.30
10911;DHT22;5508;49.150;11.030;2023-07-22T17:14:46;23.50;36.90
10911;DHT22;5508;49.150;11.030;2023-07-22T17:17:46;23.40;36.90
10911;DHT22;5508;49.150;11.030;2023-07-22T17:20:47;23.30;37.80
10911;DHT22;5508;49.150;11.030;2023-07-22T17:23:47;23.30;38.20
10911;DHT22;5508;49.150;11.030;2023-07-22T17:26:48;23.20;38.00
10911;DHT22;5508;49.150;11.030;2023-07-22T17:29:48;23.10;38.60
10911;DHT22;5508;49.150;11.030;2023-07-22T17:32:49;23.10;39.10
10911;DHT22;5508;49.150;11.030;2023-07-22T17:35:51;23.20;38.80
10911;DHT22;5508;49.150;11.030;2023-07-22T17:38:52;23.30;38.20
10911;DHT22;5508;49.150;11.030;2023-07-22T17:41:53;23.30;38.30
10911;DHT22;5508;49.150;11.030;2023-07-22T17:44:53;23.20;38.70
10911;DHT22;5508;49.150;11.030;2023-07-22T17:47:55;23.10;38.60
10911;DHT22;5508;49.150;11.030;2023-07-22T17:50:56;23.10;38.70
10911;DHT22;5508;49.150;11.030;2023-07-22T17:53:56;22.90;38.50
10911;DHT22;5508;49.150;11.030;2023-07-22T17:56:57;22.70;40.10
10911;DHT22;5508;49.150;11.030;2023-07-22T17:59:57;22.60;39.90
10911;DHT22;5508;49.150;11.030;2023-07-22T18:02:58;22.50;40.90
10911;DHT22;5508;49.150;11.030;2023-07-22T18:05:59;22.40;41.10
10911;DHT22;5508;49.150;11.030;2023-07-22T18:08:59;22.30;42.60
10911;DHT22;5508;49.150;11.030;2023-07-22T18:12:00;22.20;41.80
10911;DHT22;5508;49.150;11.030;2023-07-22T18:15:00;22.20;41.40
10911;DHT22;5508;49.150;11.030;2023-07-22T18:18:01;22.30;41.30
10911;DHT22;5508;49.150;11.030;2023-07-22T18:21:02;22.20;41.80
10911;DHT22;5508;49.150;11.030;2023-07-22T18:24:02;22.10;41.80
10911;DHT22;5508;49.150;11.030;2023-07-22T18:27:03;22.00;42.10
10911;DHT22;5508;49.150;11.030;2023-07-22T18:30:04;21.90;43.20
10911;DHT22;5508;49.150;11.030;2023-07-22T18:33:05;21.70;43.00
10911;DHT22;5508;49.150;11.030;2023-07-22T18:36:05;21.60;44.40
10911;DHT22;5508;49.150;11.030;2023-07-22T18:39:06;21.40;46.40
10911;DHT22;5508;49.150;11.030;2023-07-22T18:42:06;21.20;47.10
10911;DHT22;5508;49.150;11.030;2023-07-22T18:45:07;21.00;47.40
10911;DHT22;5508;49.150;11.030;2023-07-22T18:48:08;20.80;48.90
10911;DHT22;5508;49.150;11.030;2023-07-22T18:51:09;20.60;48.90
10911;DHT22;5508;49.150;11.030;2023-07-22T18:54:10;20.50;49.00
10911;DHT22;5508;49.150;11.030;2023-07-22T18:57:11;20.30;49.40
10911;DHT22;5508;49.150;11.030;2023-07-22T19:00:11;20.10;50.40
10911;DHT22;5508;49.150;11.030;2023-07-22T19:03:13;19.90;51.60
10911;DHT22;5508;49.150;11.030;2023-07-22T19:09:14;19.50;52.50
10911;DHT22;5508;49.150;11.030;2023-07-22T19:12:15;19.30;54.40
10911;DHT22;5508;49.150;11.030;2023-07-22T19:15:15;19.10;55.00